Time;durP1;ratioP1;P1;durP2;ratioP2;P2;SDS_P1;SDS_P2;PMS_P1;PMS_P2;Temp;Humidity;BMP_temperature;BMP_pressure;BME280_temperature;BME280_humidity;BME280_pressure;Samples;Min_cycle;Max_cycle;Signal;HPM_P1;HPM_P2
2023/06/05 00:02:26;;;;;;;;;;;;;;;23.54;84.87;99391.44;4994333;28;20414;-42
2023/06/05 00:04:52;;;;;;;;;;;;;;;22.10;88.41;99430.31;4991037;28;19921;-42
2023/06/05 00:07:17;;;;;;;;;;;;;;;21.76;90.73;99444.16;4990449;28;19918;-42
2023/06/05 00:09:42;;;;;;;;;;;;;;;22.74;90.31;99426.50;4992170;28;19925;-42
2023/06/05 00:12:08;;;;;;;;;;;;;;;22.32;90.52;99444.50;4982742;28;19924;-42
2023/06/05 00:14:33;;;;;;;;;;;;;;;22.09;91.73;99446.97;4991598;28;19929;-42
2023/06/05 00:16:58;;;;;;;;;;;;;;;23.21;90.46;99424.66;4989131;28;20494;-42
2023/06/05 00:19:23;;;;;;;;;;;;;;;22.76;86.95;99404.44;4989912;28;20031;-42
2023/06/05 00:21:50;;;;;;;;;;;;;;;22.20;90.66;99440.94;4986249;28;19921;-42
2023/06/05 00:24:15;;;;;;;;;;;;;;;22.46;90.40;99422.47;4988586;28;19928;-42
2023/06/05 00:26:41;;;;;;;;;;;;;;;22.20;94.06;99448.00;4984575;28;19922;-42
2023/06/05 00:29:06;;;;;;;;;;;;;;;21.63;92.47;99445.03;4989792;28;20371;-42
2023/06/05 00:31:32;;;;;;;;;;;;;;;21.51;91.17;99435.44;4986525;28;19918;-42
2023/06/05 00:33:57;;;;;;;;;;;;;;;23.64;88.25;99395.00;4991812;28;19949;-42
2023/06/05 00:36:22;;;;;;;;;;;;;;;21.70;94.75;99456.75;4987027;28;19921;-42
2023/06/05 00:38:49;;;;;;;;;;;;;;;23.07;91.30;99412.59;4985795;28;19921;-42
2023/06/05 00:41:14;;;;;;;;;;;;;;;23.46;88.90;99397.28;4983016;28;20009;-42
2023/06/05 00:43:40;;;;;;;;;;;;;;;24.14;83.36;99371.66;4987303;28;20430;-41
2023/06/05 00:46:05;;;;;;;;;;;;;;;24.32;81.05;99365.84;4990070;28;20404;-41
2023/06/05 00:48:31;;;;;;;;;;;;;;;24.26;80.99;99368.97;4992812;28;19928;-41
2023/06/05 00:50:56;;;;;;;;;;;;;;;24.29;80.37;99373.97;4991593;28;20020;-41
2023/06/05 00:53:22;;;;;;;;;;;;;;;24.29;80.35;99376.63;4988984;28;19917;-41
2023/06/05 00:55:47;;;;;;;;;;;;;;;24.20;78.50;99360.63;4984437;28;19927;-41
2023/06/05 00:58:13;;;;;;;;;;;;;;;24.35;78.72;99362.94;4990276;28;19925;-41
2023/06/05 01:00:38;;;;;;;;;;;;;;;24.44;77.35;99356.91;4987038;28;20483;-41
2023/06/05 01:03:04;;;;;;;;;;;;;;;24.32;78.36;99371.94;4987846;28;19941;-41
2023/06/05 01:05:29;;;;;;;;;;;;;;;24.26;79.51;99376.88;4985616;28;19918;-42
2023/06/05 01:07:55;;;;;;;;;;;;;;;24.27;77.98;99366.22;4984344;28;19968;-41
2023/06/05 01:10:20;;;;;;;;;;;;;;;24.13;78.17;99370.00;4995951;28;20030;-41
2023/06/05 01:12:58;;;;;;;;;;;;;;;24.15;78.71;99372.50;4991358;28;19918;-41
2023/06/05 01:15:28;;;;;;;;;;;;;;;24.03;79.28;99371.72;4987275;28;19961;-41
2023/06/05 01:17:53;;;;;;;;;;;;;;;24.00;78.54;99369.34;4980910;28;19979;-41
2023/06/05 01:20:19;;;;;;;;;;;;;;;23.98;79.13;99374.72;4987498;28;19922;-41
2023/06/05 01:22:47;;;;;;;;;;;;;;;23.87;80.63;99380.03;4987140;28;20496;-41
2023/06/05 01:25:12;;;;;;;;;;;;;;;23.89;80.43;99387.78;4981919;28;19964;-41
2023/06/05 01:27:43;;;;;;;;;;;;;;;24.07;79.08;99370.50;4983277;28;19918;-41
2023/06/05 01:30:14;;;;;;;;;;;;;;;23.89;80.42;99377.28;4991118;28;20024;-41
2023/06/05 01:32:44;;;;;;;;;;;;;;;23.97;79.10;99366.94;4991253;28;19947;-41
2023/06/05 01:35:10;;;;;;;;;;;;;;;23.87;80.91;99380.03;4983580;28;19918;-41
2023/06/05 01:37:40;;;;;;;;;;;;;;;23.89;79.94;99372.84;4984860;28;19917;-41
2023/06/05 01:40:07;;;;;;;;;;;;;;;23.77;79.22;99358.91;4985360;28;19922;-41
2023/06/05 01:42:32;;;;;;;;;;;;;;;23.62;80.19;99368.00;4985956;28;19921;-41
2023/06/05 01:44:57;;;;;;;;;;;;;;;23.73;79.59;99359.25;4984110;28;19960;-41
2023/06/05 01:47:23;;;;;;;;;;;;;;;23.52;80.52;99369.69;4981812;28;19922;-41
2023/06/05 01:49:48;;;;;;;;;;;;;;;23.39;81.90;99375.91;4985820;28;19933;-41
2023/06/05 01:52:13;;;;;;;;;;;;;;;23.44;82.17;99370.28;4984836;28;19961;-41
2023/06/05 01:54:39;;;;;;;;;;;;;;;23.46;80.85;99365.75;4988432;28;20022;-41
2023/06/05 01:57:04;;;;;;;;;;;;;;;23.50;81.68;99366.34;4992791;28;19913;-41
2023/06/05 01:59:29;;;;;;;;;;;;;;;23.32;81.64;99369.47;4988976;28;20371;-41
2023/06/05 02:01:54;;;;;;;;;;;;;;;23.27;81.96;99363.75;4987210;28;20024;-41
2023/06/05 02:04:20;;;;;;;;;;;;;;;23.23;82.48;99366.75;4982464;28;19965;-41
2023/06/05 02:06:45;;;;;;;;;;;;;;;23.18;82.11;99361.84;4986956;28;19953;-42
2023/06/05 02:09:12;;;;;;;;;;;;;;;23.20;83.05;99364.38;4981582;28;20318;-41
2023/06/05 02:11:37;;;;;;;;;;;;;;;22.91;83.74;99376.13;4991763;28;19970;-41
2023/06/05 02:14:03;;;;;;;;;;;;;;;23.10;82.79;99362.44;4984161;28;19922;-41
2023/06/05 02:16:28;;;;;;;;;;;;;;;23.00;84.09;99369.38;4984996;28;19925;-41
2023/06/05 02:18:56;;;;;;;;;;;;;;;22.94;82.92;99370.66;4988980;28;19921;-41
2023/06/05 02:21:22;;;;;;;;;;;;;;;22.93;83.58;99371.59;4986855;28;20024;-41
2023/06/05 02:23:47;;;;;;;;;;;;;;;22.91;83.87;99370.06;4986125;28;20093;-41
2023/06/05 02:26:12;;;;;;;;;;;;;;;22.81;84.66;99377.81;4994361;28;20025;-41
2023/06/05 02:28:37;;;;;;;;;;;;;;;22.81;85.11;99375.19;4983036;28;19922;-41
2023/06/05 02:31:04;;;;;;;;;;;;;;;23.04;83.64;99359.47;4987382;28;19921;-41
2023/06/05 02:33:29;;;;;;;;;;;;;;;22.94;84.16;99360.16;4988580;28;19937;-41
2023/06/05 02:35:56;;;;;;;;;;;;;;;22.97;84.51;99369.59;4988602;28;19921;-41
2023/06/05 02:38:22;;;;;;;;;;;;;;;23.09;83.42;99359.94;4981595;28;20311;-41
2023/06/05 02:40:48;;;;;;;;;;;;;;;22.91;83.76;99363.00;4988280;28;19924;-41
2023/06/05 02:43:15;;;;;;;;;;;;;;;22.96;83.35;99355.59;4983304;28;20306;-41
2023/06/05 02:45:40;;;;;;;;;;;;;;;22.84;83.50;99364.44;4981770;28;19972;-41
2023/06/05 02:48:05;;;;;;;;;;;;;;;22.75;84.25;99357.28;4984399;28;20422;-42
2023/06/05 02:50:31;;;;;;;;;;;;;;;22.74;85.14;99369.56;4985257;28;20020;-41
2023/06/05 02:52:56;;;;;;;;;;;;;;;22.79;84.13;99357.88;4983149;28;20382;-41
2023/06/05 02:55:21;;;;;;;;;;;;;;;22.75;83.91;99360.72;4986275;28;19996;-41
2023/06/05 02:57:48;;;;;;;;;;;;;;;22.80;84.06;99354.28;4984491;28;20009;-41
2023/06/05 03:00:16;;;;;;;;;;;;;;;22.73;83.46;99348.66;4986486;28;19953;-41
2023/06/05 03:02:42;;;;;;;;;;;;;;;22.70;83.86;99351.53;4985422;28;19933;-41
2023/06/05 03:05:08;;;;;;;;;;;;;;;22.83;84.04;99357.53;4983958;28;20433;-41
2023/06/05 03:07:34;;;;;;;;;;;;;;;22.51;85.31;99363.44;4987681;28;19918;-41
2023/06/05 03:09:59;;;;;;;;;;;;;;;22.61;84.60;99358.31;4990253;28;19997;-41
2023/06/05 03:12:25;;;;;;;;;;;;;;;22.49;86.27;99362.72;4987011;28;19929;-41
2023/06/05 03:14:50;;;;;;;;;;;;;;;22.49;85.08;99354.03;4993073;28;19989;-41
2023/06/05 03:17:15;;;;;;;;;;;;;;;22.46;86.05;99362.94;4977374;28;19914;-41
2023/06/05 03:19:41;;;;;;;;;;;;;;;22.36;85.55;99353.28;4996522;28;19939;-41
2023/06/05 03:22:07;;;;;;;;;;;;;;;22.46;86.84;99365.56;4983714;28;20302;-42
2023/06/05 03:24:32;;;;;;;;;;;;;;;22.55;85.86;99343.88;4983917;28;19925;-42
2023/06/05 03:26:57;;;;;;;;;;;;;;;22.36;86.27;99354.09;4984004;28;19921;-41
2023/06/05 03:29:22;;;;;;;;;;;;;;;22.34;86.24;99356.84;4985675;28;20390;-41
2023/06/05 03:31:47;;;;;;;;;;;;;;;22.28;85.85;99359.06;4983494;28;20113;-41
2023/06/05 03:34:13;;;;;;;;;;;;;;;22.27;86.60;99357.41;4989300;28;20426;-42
2023/06/05 03:36:39;;;;;;;;;;;;;;;22.22;86.43;99355.13;4986101;28;19922;-41
2023/06/05 03:39:05;;;;;;;;;;;;;;;22.18;86.92;99358.06;4982410;28;19917;-41
2023/06/05 03:41:30;;;;;;;;;;;;;;;22.05;86.60;99361.59;4989968;28;19921;-42
2023/06/05 03:43:56;;;;;;;;;;;;;;;22.13;86.57;99354.00;4991219;28;19926;-41
2023/06/05 03:46:23;;;;;;;;;;;;;;;22.17;86.84;99359.00;4993846;28;19928;-41
2023/06/05 03:48:49;;;;;;;;;;;;;;;22.16;86.75;99360.81;4989367;28;19918;-41
2023/06/05 03:51:18;;;;;;;;;;;;;;;22.05;86.97;99360.75;4986305;28;19914;-41
2023/06/05 03:53:43;;;;;;;;;;;;;;;22.02;88.60;99377.56;4992043;28;19929;-41
2023/06/05 03:56:08;;;;;;;;;;;;;;;22.13;87.21;99359.25;4983351;28;19928;-41
2023/06/05 03:58:34;;;;;;;;;;;;;;;22.10;87.93;99364.72;4987251;28;19914;-42
2023/06/05 04:00:59;;;;;;;;;;;;;;;22.15;87.65;99372.25;4984054;28;19914;-41
2023/06/05 04:03:25;;;;;;;;;;;;;;;22.30;87.87;99365.03;4988104;28;20073;-41
2023/06/05 04:05:50;;;;;;;;;;;;;;;22.22;88.24;99367.44;4988606;28;19932;-41
2023/06/05 04:08:15;;;;;;;;;;;;;;;22.19;87.69;99364.97;4991395;28;20024;-41
2023/06/05 04:10:41;;;;;;;;;;;;;;;22.36;87.87;99364.59;4991147;28;20012;-41
2023/06/05 04:13:06;;;;;;;;;;;;;;;22.51;87.42;99359.97;4993975;28;20189;-41
2023/06/05 04:15:32;;;;;;;;;;;;;;;22.76;87.05;99351.06;4986166;28;19917;-41
2023/06/05 04:17:57;;;;;;;;;;;;;;;22.91;86.46;99351.66;4993025;28;20377;-41
2023/06/05 04:20:22;;;;;;;;;;;;;;;22.93;85.74;99352.41;4995266;28;19964;-41
2023/06/05 04:22:48;;;;;;;;;;;;;;;23.00;87.12;99358.88;4988156;28;19970;-41
2023/06/05 04:25:13;;;;;;;;;;;;;;;22.97;86.83;99359.91;4984260;28;19958;-43
2023/06/05 04:27:39;;;;;;;;;;;;;;;23.25;86.89;99357.78;4998729;28;20265;-41
2023/06/05 04:30:07;;;;;;;;;;;;;;;23.42;86.14;99353.81;4983732;28;20005;-41
2023/06/05 04:32:34;;;;;;;;;;;;;;;23.31;87.11;99364.31;4989104;28;19957;-41
2023/06/05 04:34:59;;;;;;;;;;;;;;;23.43;87.30;99363.38;4984631;28;19926;-41
2023/06/05 04:37:24;;;;;;;;;;;;;;;23.48;86.64;99357.75;4988038;28;19922;-41
2023/06/05 04:39:50;;;;;;;;;;;;;;;23.38;86.56;99357.66;4989417;28;19924;-41
2023/06/05 04:42:17;;;;;;;;;;;;;;;23.44;86.46;99351.88;4989599;28;19917;-41
2023/06/05 04:44:42;;;;;;;;;;;;;;;23.62;85.61;99346.13;4982641;28;19918;-41
2023/06/05 04:47:08;;;;;;;;;;;;;;;23.77;85.39;99348.38;4982766;28;19917;-41
2023/06/05 04:49:33;;;;;;;;;;;;;;;23.77;85.31;99342.28;4990142;28;19925;-41
2023/06/05 04:51:59;;;;;;;;;;;;;;;23.76;86.31;99345.88;4984564;28;19922;-41
2023/06/05 04:54:24;;;;;;;;;;;;;;;24.01;84.86;99334.16;4987605;28;19976;-41
2023/06/05 04:56:49;;;;;;;;;;;;;;;24.12;84.73;99347.28;4987863;28;19921;-41
2023/06/05 04:59:15;;;;;;;;;;;;;;;24.11;84.83;99345.63;4981810;28;20343;-41
2023/06/05 05:01:41;;;;;;;;;;;;;;;24.06;85.12;99347.78;4988598;28;20550;-41
2023/06/05 05:04:06;;;;;;;;;;;;;;;24.20;84.49;99344.84;4982245;28;20540;-41
2023/06/05 05:06:31;;;;;;;;;;;;;;;23.80;86.62;99363.91;4991083;28;19921;-41
2023/06/05 05:08:56;;;;;;;;;;;;;;;22.47;91.79;99401.38;4991843;28;19917;-41
2023/06/05 05:11:21;;;;;;;;;;;;;;;21.89;95.52;99423.97;4991647;28;19917;-41
2023/06/05 05:13:47;;;;;;;;;;;;;;;21.08;100.00;99448.84;4986343;28;19918;-41
2023/06/05 05:16:12;;;;;;;;;;;;;;;20.88;100.00;99453.63;4992679;28;19932;-41
2023/06/05 05:18:42;;;;;;;;;;;;;;;21.17;100.00;99440.34;4982285;28;19918;-41
2023/06/05 05:21:08;;;;;;;;;;;;;;;21.35;100.00;99425.16;4990384;28;19924;-41
2023/06/05 05:23:33;;;;;;;;;;;;;;;20.89;100.00;99433.53;4986713;28;19926;-42
2023/06/05 05:25:59;;;;;;;;;;;;;;;20.81;100.00;99422.75;4985235;28;19921;-41
2023/06/05 05:28:24;;;;;;;;;;;;;;;22.51;99.96;99384.44;4994334;28;19921;-41
2023/06/05 05:30:51;;;;;;;;;;;;;;;24.10;93.36;99348.38;4989238;28;20430;-41
2023/06/05 05:33:16;;;;;;;;;;;;;;;23.51;91.03;99357.50;4989526;28;20688;-41
2023/06/05 05:35:41;;;;;;;;;;;;;;;24.29;89.71;99352.94;4992736;28;20016;-41
2023/06/05 05:38:07;;;;;;;;;;;;;;;24.38;88.49;99341.63;4981376;28;19976;-41
2023/06/05 05:40:32;;;;;;;;;;;;;;;24.13;89.57;99361.25;4990276;28;19921;-41
2023/06/05 05:42:57;;;;;;;;;;;;;;;24.87;87.41;99337.50;4983015;28;20276;-41
2023/06/05 05:45:22;;;;;;;;;;;;;;;24.55;86.62;99343.72;4983835;28;20671;-41
2023/06/05 05:47:48;;;;;;;;;;;;;;;24.23;88.40;99358.72;4988900;28;19984;-41
2023/06/05 05:50:13;;;;;;;;;;;;;;;24.47;88.89;99361.94;4983012;28;19980;-43
2023/06/05 05:52:38;;;;;;;;;;;;;;;24.50;87.78;99359.06;4983724;28;20318;-41
2023/06/05 05:55:04;;;;;;;;;;;;;;;22.74;90.75;99395.00;4983013;28;19945;-43
2023/06/05 05:57:29;;;;;;;;;;;;;;;24.11;91.27;99371.09;4982531;28;19929;-43
2023/06/05 05:59:55;;;;;;;;;;;;;;;25.02;88.59;99353.75;4982760;28;19925;-43
2023/06/05 06:02:21;;;;;;;;;;;;;;;24.90;86.10;99341.66;4986657;28;20386;-43
2023/06/05 06:04:46;;;;;;;;;;;;;;;24.79;88.25;99361.00;4982825;28;19921;-41
2023/06/05 06:07:11;;;;;;;;;;;;;;;23.48;89.83;99384.03;4989315;28;19921;-43
2023/06/05 06:09:37;;;;;;;;;;;;;;;24.16;90.28;99374.19;4985959;28;19953;-43
2023/06/05 06:12:05;;;;;;;;;;;;;;;22.22;96.54;99435.63;4984128;28;19928;-43
2023/06/05 06:14:31;;;;;;;;;;;;;;;23.32;92.30;99385.25;4989915;28;20745;-43
2023/06/05 06:16:57;;;;;;;;;;;;;;;23.89;94.41;99387.78;4983727;28;20003;-43
2023/06/05 06:19:23;;;;;;;;;;;;;;;22.87;95.93;99411.47;4984751;28;19979;-43
2023/06/05 06:21:51;;;;;;;;;;;;;;;24.09;90.25;99365.13;4986815;28;19921;-43
2023/06/05 06:24:19;;;;;;;;;;;;;;;23.95;88.53;99366.25;4991976;28;20474;-43
2023/06/05 06:26:44;;;;;;;;;;;;;;;24.21;91.26;99382.53;4981497;28;20442;-43
2023/06/05 06:29:10;;;;;;;;;;;;;;;22.93;93.62;99420.69;4987644;28;20068;-43
2023/06/05 06:31:36;;;;;;;;;;;;;;;25.35;89.10;99362.38;4983908;28;20437;-43
2023/06/05 06:34:01;;;;;;;;;;;;;;;24.73;87.97;99366.84;4989996;28;19937;-43
2023/06/05 06:36:26;;;;;;;;;;;;;;;26.14;84.67;99346.53;4986203;28;19918;-43
2023/06/05 06:38:52;;;;;;;;;;;;;;;26.25;83.33;99341.09;4991036;28;19922;-43
2023/06/05 06:41:17;;;;;;;;;;;;;;;25.14;86.72;99380.88;4989093;28;19929;-41
2023/06/05 06:43:42;;;;;;;;;;;;;;;24.00;88.73;99395.66;4986346;28;19935;-43
2023/06/05 06:46:07;;;;;;;;;;;;;;;23.79;93.45;99414.84;4989796;28;19918;-43
2023/06/05 06:48:33;;;;;;;;;;;;;;;25.52;89.19;99371.44;4988812;28;19929;-43
2023/06/05 06:50:58;;;;;;;;;;;;;;;24.71;85.97;99366.13;4982361;28;20450;-43
2023/06/05 06:53:23;;;;;;;;;;;;;;;24.73;88.16;99377.38;4989297;28;20024;-43
2023/06/05 06:55:48;;;;;;;;;;;;;;;26.94;83.46;99348.84;4984566;28;20409;-44
2023/06/05 06:58:14;;;;;;;;;;;;;;;26.32;84.26;99359.84;4985451;28;20370;-41
2023/06/05 07:00:40;;;;;;;;;;;;;;;27.10;81.24;99343.78;4981075;28;20777;-41
2023/06/05 07:03:05;;;;;;;;;;;;;;;24.91;88.87;99410.03;4988235;28;19929;-41
2023/06/05 07:05:31;;;;;;;;;;;;;;;23.45;90.39;99421.09;4984515;28;19922;-40
2023/06/05 07:08:00;;;;;;;;;;;;;;;22.84;99.31;99463.41;4987040;28;19966;-43
2023/06/05 07:10:25;;;;;;;;;;;;;;;24.85;94.18;99400.03;4991294;28;19961;-43
2023/06/05 07:12:51;;;;;;;;;;;;;;;24.25;94.07;99414.69;4981808;28;19953;-43
2023/06/05 07:15:16;;;;;;;;;;;;;;;24.88;92.13;99402.38;4986803;28;19940;-43
2023/06/05 07:17:41;;;;;;;;;;;;;;;24.81;91.18;99395.97;4996917;28;19921;-41
2023/06/05 07:20:08;;;;;;;;;;;;;;;24.00;98.25;99440.38;4991300;28;19917;-41
2023/06/05 07:22:33;;;;;;;;;;;;;;;25.48;89.47;99378.81;4990650;28;20041;-41
2023/06/05 07:24:58;;;;;;;;;;;;;;;25.13;90.94;99380.03;4984994;28;20567;-43
2023/06/05 07:27:23;;;;;;;;;;;;;;;25.81;88.48;99374.13;4991438;28;20345;-43
2023/06/05 07:29:48;;;;;;;;;;;;;;;25.66;88.45;99381.63;4987569;28;20482;-43
2023/06/05 07:32:14;;;;;;;;;;;;;;;24.53;86.88;99382.50;4986262;28;19918;-43
2023/06/05 07:34:39;;;;;;;;;;;;;;;24.89;89.32;99388.25;4988047;28;19918;-43
2023/06/05 07:37:07;;;;;;;;;;;;;;;25.58;85.18;99355.06;4990676;28;19917;-43
2023/06/05 07:39:32;;;;;;;;;;;;;;;24.66;87.90;99377.03;4987707;28;20318;-43
2023/06/05 07:41:57;;;;;;;;;;;;;;;24.99;92.16;99404.94;4991756;28;19918;-43
2023/06/05 07:44:22;;;;;;;;;;;;;;;25.43;85.75;99360.75;4988584;28;19925;-43
2023/06/05 07:46:48;;;;;;;;;;;;;;;26.28;87.53;99359.28;4986044;28;19924;-43
2023/06/05 07:49:15;;;;;;;;;;;;;;;27.31;81.04;99330.34;4989399;28;19921;-43
2023/06/05 07:51:41;;;;;;;;;;;;;;;28.81;75.77;99303.09;4986679;28;20548;-43
2023/06/05 07:54:06;;;;;;;;;;;;;;;27.26;77.97;99335.25;4985795;28;19918;-43
2023/06/05 07:56:33;;;;;;;;;;;;;;;27.94;81.64;99346.22;4988821;28;19922;-43
2023/06/05 07:58:58;;;;;;;;;;;;;;;27.34;77.82;99332.69;4983999;28;19914;-43
2023/06/05 08:01:23;;;;;;;;;;;;;;;25.31;81.68;99377.63;4985560;28;20285;-43
2023/06/05 08:03:49;;;;;;;;;;;;;;;25.05;84.20;99385.16;4983812;28;20338;-43
2023/06/05 08:06:15;;;;;;;;;;;;;;;24.84;86.28;99385.19;4986873;28;20000;-43
2023/06/05 08:08:40;;;;;;;;;;;;;;;27.09;81.29;99334.19;4989705;28;19921;-43
2023/06/05 08:11:06;;;;;;;;;;;;;;;24.73;86.93;99390.53;4988455;28;19918;-43
2023/06/05 08:13:31;;;;;;;;;;;;;;;24.29;88.40;99395.91;4983897;28;19925;-43
2023/06/05 08:15:56;;;;;;;;;;;;;;;25.97;83.80;99355.16;4992887;28;19922;-43
2023/06/05 08:18:21;;;;;;;;;;;;;;;26.78;80.05;99328.34;4989594;28;19922;-43
2023/06/05 08:20:47;;;;;;;;;;;;;;;26.31;85.64;99360.81;4987935;28;19917;-43
2023/06/05 08:23:12;;;;;;;;;;;;;;;24.94;86.94;99391.31;4987031;28;19922;-43
2023/06/05 08:25:37;;;;;;;;;;;;;;;26.98;81.08;99315.88;4985414;28;19929;-43
2023/06/05 08:28:03;;;;;;;;;;;;;;;26.59;85.39;99356.47;4983876;28;20751;-43
2023/06/05 08:30:28;;;;;;;;;;;;;;;27.02;79.29;99322.53;4989855;28;20607;-43
2023/06/05 08:32:53;;;;;;;;;;;;;;;27.30;79.56;99321.59;4991749;28;19921;-41
2023/06/05 08:35:18;;;;;;;;;;;;;;;26.12;80.60;99340.56;4984537;28;19922;-43
2023/06/05 08:37:44;;;;;;;;;;;;;;;26.58;80.47;99333.69;4988726;28;19928;-43
2023/06/05 08:40:10;;;;;;;;;;;;;;;26.48;80.07;99335.50;4988782;28;19921;-43
2023/06/05 08:42:37;;;;;;;;;;;;;;;28.72;75.41;99294.28;4986277;28;19944;-43
2023/06/05 08:45:02;;;;;;;;;;;;;;;25.16;84.20;99385.06;4990230;28;20587;-44
2023/06/05 08:47:28;;;;;;;;;;;;;;;27.63;77.36;99306.03;4982914;28;19977;-43
2023/06/05 08:49:53;;;;;;;;;;;;;;;26.62;79.25;99343.00;4987416;28;20593;-43
2023/06/05 08:52:19;;;;;;;;;;;;;;;27.13;75.77;99315.22;4985560;28;19922;-43
2023/06/05 08:54:45;;;;;;;;;;;;;;;27.10;75.99;99320.81;4983564;28;19968;-43
2023/06/05 08:57:10;;;;;;;;;;;;;;;26.57;81.36;99355.81;4987377;28;19918;-43
2023/06/05 08:59:36;;;;;;;;;;;;;;;27.61;80.77;99330.97;4967166;28;19918;-43
2023/06/05 09:02:01;;;;;;;;;;;;;;;26.92;79.07;99341.09;4987123;28;19956;-43
2023/06/05 09:04:29;;;;;;;;;;;;;;;29.01;73.23;99285.94;4985150;28;20055;-43
2023/06/05 09:06:56;;;;;;;;;;;;;;;28.29;70.27;99288.88;4990626;28;19921;-43
2023/06/05 09:09:21;;;;;;;;;;;;;;;29.45;75.82;99314.13;4992848;28;20024;-43
2023/06/05 09:11:46;;;;;;;;;;;;;;;29.54;68.79;99279.47;4985286;28;20016;-45
2023/06/05 09:14:12;;;;;;;;;;;;;;;28.30;77.81;99347.97;4984936;28;19924;-43
2023/06/05 09:16:38;;;;;;;;;;;;;;;29.62;73.04;99294.56;4984059;28;19923;-43
2023/06/05 09:19:04;;;;;;;;;;;;;;;28.51;70.75;99294.66;4981912;28;19922;-43
2023/06/05 09:21:30;;;;;;;;;;;;;;;27.50;71.78;99318.81;4987900;28;20325;-43
2023/06/05 09:24:15;;;;;;;;;;;;;;;28.85;74.98;99317.69;4987571;28;19921;-43
2023/06/05 09:26:59;;;;;;;;;;;;;;;29.72;72.25;99294.44;4985763;28;19965;-43
2023/06/05 09:29:25;;;;;;;;;;;;;;;28.33;70.35;99298.19;4982908;28;19980;-43
2023/06/05 09:31:52;;;;;;;;;;;;;;;29.13;70.72;99290.00;4981517;28;19913;-43
2023/06/05 09:34:20;;;;;;;;;;;;;;;30.69;66.96;99263.44;4990791;28;20326;-44
2023/06/05 09:36:46;;;;;;;;;;;;;;;27.23;67.54;99298.50;4982618;28;20688;-43
2023/06/05 09:39:15;;;;;;;;;;;;;;;28.36;71.51;99295.22;4987227;28;19928;-44
2023/06/05 09:41:44;;;;;;;;;;;;;;;27.41;72.91;99328.47;4993448;28;19960;-43
2023/06/05 09:44:09;;;;;;;;;;;;;;;27.56;75.71;99322.69;4985972;28;19921;-43
2023/06/05 09:46:35;;;;;;;;;;;;;;;29.56;67.85;99274.84;4990432;28;20410;-44
2023/06/05 09:49:00;;;;;;;;;;;;;;;30.78;65.95;99265.06;4986293;28;19961;-43
2023/06/05 09:51:26;;;;;;;;;;;;;;;29.52;67.65;99281.47;4988474;28;20708;-43
2023/06/05 09:53:51;;;;;;;;;;;;;;;26.89;74.56;99334.28;4997455;28;20401;-43
2023/06/05 09:56:17;;;;;;;;;;;;;;;28.72;67.93;99270.44;4984099;28;19913;-43
2023/06/05 09:58:46;;;;;;;;;;;;;;;30.66;62.54;99245.19;4984124;28;19918;-43
2023/06/05 10:01:17;;;;;;;;;;;;;;;29.93;65.04;99265.56;4983371;28;19984;-43
2023/06/05 10:03:43;;;;;;;;;;;;;;;31.00;63.98;99252.03;4986323;28;19930;-43
2023/06/05 10:06:09;;;;;;;;;;;;;;;30.50;57.04;99224.81;4985533;28;19988;-44
2023/06/05 10:08:34;;;;;;;;;;;;;;;29.09;66.90;99283.34;4980707;28;19917;-43
2023/06/05 10:11:00;;;;;;;;;;;;;;;28.44;68.64;99275.91;4986799;28;19951;-43
2023/06/05 10:13:25;;;;;;;;;;;;;;;28.58;71.66;99290.44;4984668;28;19917;-44
2023/06/05 10:15:51;;;;;;;;;;;;;;;28.94;64.75;99258.41;4986136;28;19933;-43
2023/06/05 10:18:16;;;;;;;;;;;;;;;28.14;64.47;99263.94;4982470;28;20041;-43
2023/06/05 10:20:41;;;;;;;;;;;;;;;27.88;67.29;99278.00;4981920;28;19960;-43
2023/06/05 10:23:06;;;;;;;;;;;;;;;28.91;62.31;99233.06;4986674;28;19926;-43
2023/06/05 10:25:32;;;;;;;;;;;;;;;32.24;55.83;99196.78;4990043;28;19956;-43
2023/06/05 10:28:07;;;;;;;;;;;;;;;29.43;63.61;99263.06;4987503;28;19921;-43
2023/06/05 10:30:50;;;;;;;;;;;;;;;30.24;66.13;99246.25;4989129;28;19928;-43
2023/06/05 10:33:35;;;;;;;;;;;;;;;32.15;58.05;99201.38;4981747;28;19926;-43
2023/06/05 10:36:05;;;;;;;;;;;;;;;29.44;66.20;99268.16;4985507;28;19991;-44
2023/06/05 10:38:30;;;;;;;;;;;;;;;29.99;56.67;99211.81;4982833;28;19957;-44
2023/06/05 10:40:59;;;;;;;;;;;;;;;29.93;56.39;99217.78;4988101;28;19953;-44
2023/06/05 10:43:32;;;;;;;;;;;;;;;30.90;54.66;99203.53;4991944;28;20001;-44
2023/06/05 10:45:58;;;;;;;;;;;;;;;32.47;50.81;99186.84;4982357;28;19945;-44
2023/06/05 10:48:43;;;;;;;;;;;;;;;31.24;53.09;99201.31;4987084;28;19921;-44
2023/06/05 10:51:39;;;;;;;;;;;;;;;31.33;44.93;99164.00;4996160;28;20470;-44
2023/06/05 10:54:07;;;;;;;;;;;;;;;30.91;49.40;99203.38;4994634;28;20553;-44
2023/06/05 10:56:57;;;;;;;;;;;;;;;29.59;50.56;99216.13;4990079;28;19918;-44
2023/06/05 10:59:23;;;;;;;;;;;;;;;31.21;54.43;99208.84;4984845;28;20782;-44
2023/06/05 11:02:16;;;;;;;;;;;;;;;30.32;54.49;99217.06;4998155;28;19921;-44
2023/06/05 11:04:42;;;;;;;;;;;;;;;31.65;52.48;99198.34;4987093;28;19931;-44
2023/06/05 11:07:34;;;;;;;;;;;;;;;30.56;53.99;99217.97;4991781;28;19921;-44
2023/06/05 11:10:03;;;;;;;;;;;;;;;29.69;54.31;99217.81;4986397;28;19924;-45
2023/06/05 11:12:34;;;;;;;;;;;;;;;31.22;49.84;99182.03;4987692;28;19922;-44
2023/06/05 11:15:00;;;;;;;;;;;;;;;31.87;48.31;99174.53;4989760;28;19918;-44
2023/06/05 11:17:25;;;;;;;;;;;;;;;32.33;52.10;99206.34;4985302;28;20032;-45
2023/06/05 11:19:51;;;;;;;;;;;;;;;32.95;46.67;99173.06;4996865;28;19917;-45
2023/06/05 11:22:16;;;;;;;;;;;;;;;31.97;46.16;99183.09;4988621;28;20481;-45
2023/06/05 11:24:41;;;;;;;;;;;;;;;33.20;40.26;99132.69;4988094;28;20397;-45
2023/06/05 11:27:09;;;;;;;;;;;;;;;30.29;42.02;99168.72;4988699;28;19933;-44
2023/06/05 11:29:34;;;;;;;;;;;;;;;30.95;45.28;99191.38;4984515;28;19917;-44
2023/06/05 11:32:00;;;;;;;;;;;;;;;32.15;38.78;99133.94;4997141;28;19925;-45
2023/06/05 11:34:27;;;;;;;;;;;;;;;31.01;43.34;99168.56;4986385;28;20347;-44
2023/06/05 11:36:53;;;;;;;;;;;;;;;33.73;39.81;99123.25;4994612;28;19928;-44
2023/06/05 11:39:19;;;;;;;;;;;;;;;32.27;41.91;99154.63;4986392;28;19925;-44
2023/06/05 11:41:45;;;;;;;;;;;;;;;34.19;38.77;99116.56;4991948;28;19917;-46
2023/06/05 11:44:10;;;;;;;;;;;;;;;32.70;37.62;99125.41;4998387;28;19922;-44
2023/06/05 11:46:37;;;;;;;;;;;;;;;32.15;40.85;99147.28;4982900;28;19971;-45
2023/06/05 11:49:02;;;;;;;;;;;;;;;31.89;44.63;99183.16;5000657;28;20285;-44
2023/06/05 11:51:32;;;;;;;;;;;;;;;31.30;44.69;99180.34;4994142;28;19941;-44
2023/06/05 11:53:59;;;;;;;;;;;;;;;31.34;41.89;99162.97;4992039;28;19921;-45
2023/06/05 11:56:27;;;;;;;;;;;;;;;31.07;45.10;99183.00;5001094;28;19922;-44
2023/06/05 11:58:52;;;;;;;;;;;;;;;32.12;41.06;99140.47;4985652;28;19921;-44
2023/06/05 12:01:17;;;;;;;;;;;;;;;33.98;39.47;99130.78;4994958;28;19921;-45
2023/06/05 12:03:46;;;;;;;;;;;;;;;31.42;40.34;99160.28;4987340;28;19932;-44
2023/06/05 12:06:12;;;;;;;;;;;;;;;34.27;36.64;99096.81;4992027;28;20325;-43
2023/06/05 12:08:38;;;;;;;;;;;;;;;32.69;37.35;99126.41;4993627;28;20402;-44
2023/06/05 12:11:04;;;;;;;;;;;;;;;33.41;35.94;99107.78;4989688;28;20048;-44
2023/06/05 12:13:48;;;;;;;;;;;;;;;33.54;38.74;99129.25;4989688;28;20302;-44
2023/06/05 12:16:13;;;;;;;;;;;;;;;32.99;37.81;99147.66;4990194;28;19917;-43
2023/06/05 12:18:38;;;;;;;;;;;;;;;31.31;36.27;99118.09;4982054;28;19918;-46
2023/06/05 12:21:06;;;;;;;;;;;;;;;31.99;37.06;99125.13;4993764;28;19914;-43
2023/06/05 12:23:32;;;;;;;;;;;;;;;35.25;36.32;99101.78;4987681;28;20414;-42
2023/06/05 12:26:01;;;;;;;;;;;;;;;35.88;31.99;99079.84;4989222;28;20031;-43
2023/06/05 12:28:27;;;;;;;;;;;;;;;33.06;34.48;99116.56;4986473;28;19929;-43
2023/06/05 12:30:53;;;;;;;;;;;;;;;32.08;39.17;99145.34;4985959;28;19921;-43
2023/06/05 12:33:19;;;;;;;;;;;;;;;35.51;35.02;99092.88;4989764;28;19941;-43
2023/06/05 12:35:44;;;;;;;;;;;;;;;34.16;33.88;99091.00;4989904;28;20283;-44
2023/06/05 12:38:10;;;;;;;;;;;;;;;34.56;34.59;99093.00;4984433;28;19928;-43
2023/06/05 12:40:36;;;;;;;;;;;;;;;35.18;34.07;99093.75;4992409;28;20442;-44
2023/06/05 12:43:01;;;;;;;;;;;;;;;34.51;33.75;99101.63;4985424;28;20079;-43